Time;durP1;ratioP1;P1;durP2;ratioP2;P2;SDS_P1;SDS_P2;PMS_P1;PMS_P2;Temp;Humidity;BMP_temperature;BMP_pressure;BME280_temperature;BME280_humidity;BME280_pressure;Samples;Min_cycle;Max_cycle;Signal;HPM_P1;HPM_P2
2022/04/09 00:01:50;;;;;;;;;11.50;11.00;;;;;;;;5083327;27;45354;-83
2022/04/09 00:04:15;;;;;;;;;12.00;12.00;;;;;;;;5082057;27;45270;-82
2022/04/09 00:06:41;;;;;;;;;6.25;6.25;;;;;;;;5093340;27;45224;-82
2022/04/09 00:09:06;;;;;;;;;13.75;13.25;;;;;;;;5100788;27;45503;-83
2022/04/09 00:11:31;;;;;;;;;10.50;10.25;;;;;;;;5086807;27;45203;-81
2022/04/09 00:13:56;;;;;;;;;12.75;11.25;;;;;;;;5086537;28;45515;-82
2022/04/09 00:16:22;;;;;;;;;15.00;15.00;;;;;;;;5091776;27;45326;-81
2022/04/09 00:18:47;;;;;;;;;15.50;12.25;;;;;;;;5091707;28;47134;-82
2022/04/09 00:21:12;;;;;;;;;14.00;11.75;;;;;;;;5096173;27;45294;-81
2022/04/09 00:23:37;;;;;;;;;12.25;11.25;;;;;;;;5082767;28;45345;-81
2022/04/09 00:26:02;;;;;;;;;15.00;14.25;;;;;;;;5087521;28;45570;-81
2022/04/09 00:28:27;;;;;;;;;10.50;10.50;;;;;;;;5088155;27;46143;-82
2022/04/09 00:30:53;;;;;;;;;13.50;13.50;;;;;;;;5088303;28;45684;-83
2022/04/09 00:33:18;;;;;;;;;10.00;10.00;;;;;;;;5088376;28;45484;-82
2022/04/09 00:35:43;;;;;;;;;12.75;11.75;;;;;;;;5084682;27;45446;-82
2022/04/09 00:38:08;;;;;;;;;14.75;12.75;;;;;;;;5088013;28;45818;-82
2022/04/09 00:40:34;;;;;;;;;12.50;11.00;;;;;;;;5093273;28;45866;-81
2022/04/09 00:42:59;;;;;;;;;12.50;12.50;;;;;;;;5099385;28;45526;-83
2022/04/09 00:45:24;;;;;;;;;12.00;11.50;;;;;;;;5087804;28;46078;-81
2022/04/09 00:47:50;;;;;;;;;12.00;10.75;;;;;;;;5096989;28;47252;-82
2022/04/09 00:50:15;;;;;;;;;13.00;11.25;;;;;;;;5092149;28;45349;-81
2022/04/09 00:52:46;;;;;;;;;9.25;9.25;;;;;;;;5096228;28;45306;-81
2022/04/09 00:55:12;;;;;;;;;11.75;11.75;;;;;;;;5096304;28;47044;-82
2022/04/09 00:57:40;;;;;;;;;13.25;12.50;;;;;;;;5091540;27;45382;-82
2022/04/09 01:00:09;;;;;;;;;11.00;9.75;;;;;;;;5089001;28;45298;-81
2022/04/09 01:02:37;;;;;;;;;12.25;11.50;;;;;;;;5093418;28;45278;-82
2022/04/09 01:05:03;;;;;;;;;14.00;11.00;;;;;;;;5093068;28;46325;-82
2022/04/09 01:07:29;;;;;;;;;13.00;10.75;;;;;;;;5085877;27;45291;-82
2022/04/09 01:09:54;;;;;;;;;10.00;10.00;;;;;;;;5093923;27;45365;-81
2022/04/09 01:12:19;;;;;;;;;13.00;12.00;;;;;;;;5084646;27;45291;-82
2022/04/09 01:14:45;;;;;;;;;11.00;9.50;;;;;;;;5096382;27;46173;-82
2022/04/09 01:17:10;;;;;;;;;12.00;11.25;;;;;;;;5134190;27;48241;-82
2022/04/09 01:19:35;;;;;;;;;10.75;9.25;;;;;;;;5132166;27;45339;-82
2022/04/09 01:22:01;;;;;;;;;11.50;10.00;;;;;;;;5130783;27;45504;-82
2022/04/09 01:24:26;;;;;;;;;10.00;9.33;;;;;;;;5121404;27;47102;-82
2022/04/09 01:26:52;;;;;;;;;12.00;10.25;;;;;;;;5129363;27;45410;-82
2022/04/09 01:29:17;;;;;;;;;10.00;10.00;;;;;;;;5124695;27;45930;-82
2022/04/09 01:31:42;;;;;;;;;9.00;9.00;;;;;;;;5127714;27;45751;-82
2022/04/09 01:34:08;;;;;;;;;8.75;8.75;;;;;;;;5128126;27;45285;-81
2022/04/09 01:36:34;;;;;;;;;8.33;8.33;;;;;;;;5125664;27;45361;-82
2022/04/09 01:38:59;;;;;;;;;11.00;9.50;;;;;;;;5125852;27;45403;-81
2022/04/09 01:41:24;;;;;;;;;10.75;10.75;;;;;;;;5128418;27;45124;-82
2022/04/09 01:43:49;;;;;;;;;11.75;11.00;;;;;;;;5127502;27;45175;-82
2022/04/09 01:46:14;;;;;;;;;12.25;11.00;;;;;;;;5126577;27;48232;-82
2022/04/09 01:48:41;;;;;;;;;11.75;10.00;;;;;;;;5124395;27;45266;-82
2022/04/09 01:51:06;;;;;;;;;9.00;9.00;;;;;;;;5125561;27;45271;-82
2022/04/09 01:53:33;;;;;;;;;11.50;11.00;;;;;;;;5125840;27;45279;-81
2022/04/09 01:55:58;;;;;;;;;12.00;9.50;;;;;;;;5127470;27;45488;-82
2022/04/09 01:58:24;;;;;;;;;7.67;7.67;;;;;;;;5120673;27;45478;-82
2022/04/09 02:00:49;;;;;;;;;13.75;12.00;;;;;;;;5123535;27;45363;-81
2022/04/09 02:03:14;;;;;;;;;10.00;10.00;;;;;;;;5128304;27;45358;-82
2022/04/09 02:05:39;;;;;;;;;9.00;9.00;;;;;;;;5125091;27;48127;-81
2022/04/09 02:08:05;;;;;;;;;9.25;9.00;;;;;;;;5127914;27;45326;-81
2022/04/09 02:10:31;;;;;;;;;9.25;9.25;;;;;;;;5123950;27;45258;-82
2022/04/09 02:12:57;;;;;;;;;9.00;9.00;;;;;;;;5123067;27;46149;-81
2022/04/09 02:15:22;;;;;;;;;11.33;10.00;;;;;;;;5126830;27;45355;-81
2022/04/09 02:17:47;;;;;;;;;11.00;9.25;;;;;;;;5126428;27;45374;-81
2022/04/09 02:20:13;;;;;;;;;9.25;9.25;;;;;;;;5126726;27;45470;-81
2022/04/09 02:22:39;;;;;;;;;11.75;10.75;;;;;;;;5121445;27;47352;-81
2022/04/09 02:25:05;;;;;;;;;13.25;11.75;;;;;;;;5122272;27;46516;-81
2022/04/09 02:27:31;;;;;;;;;11.00;11.00;;;;;;;;5122467;27;45421;-81
2022/04/09 02:29:56;;;;;;;;;12.75;12.50;;;;;;;;5124323;27;45542;-81
2022/04/09 02:32:22;;;;;;;;;10.50;9.50;;;;;;;;5122100;27;45689;-82
2022/04/09 02:34:49;;;;;;;;;14.00;12.00;;;;;;;;5122566;27;45267;-81
2022/04/09 02:37:14;;;;;;;;;12.75;12.25;;;;;;;;5124231;27;45348;-82
2022/04/09 02:39:40;;;;;;;;;10.75;10.50;;;;;;;;5125289;27;45383;-81
2022/04/09 02:42:06;;;;;;;;;10.75;10.25;;;;;;;;5128248;27;45222;-81
2022/04/09 02:44:32;;;;;;;;;13.00;12.50;;;;;;;;5123875;27;48201;-81
2022/04/09 02:46:57;;;;;;;;;13.50;12.00;;;;;;;;5129125;27;45306;-81
2022/04/09 02:49:23;;;;;;;;;12.25;12.00;;;;;;;;5129131;27;45350;-80
2022/04/09 02:51:48;;;;;;;;;10.00;10.00;;;;;;;;5124619;27;45262;-80
2022/04/09 02:54:16;;;;;;;;;10.75;10.75;;;;;;;;5120172;27;48293;-80
2022/04/09 02:56:46;;;;;;;;;11.00;10.50;;;;;;;;5122999;27;45321;-79
2022/04/09 02:59:13;;;;;;;;;10.50;10.25;;;;;;;;5122640;27;45308;-81
2022/04/09 03:01:39;;;;;;;;;11.00;11.00;;;;;;;;5121203;27;45392;-80
2022/04/09 03:04:05;;;;;;;;;12.25;10.50;;;;;;;;5121400;27;45918;-80
2022/04/09 03:06:30;;;;;;;;;14.25;11.00;;;;;;;;5125418;27;45330;-81
2022/04/09 03:08:55;;;;;;;;;12.00;10.50;;;;;;;;5124715;27;45320;-80
2022/04/09 03:11:20;;;;;;;;;12.25;12.00;;;;;;;;5124429;27;45613;-80
2022/04/09 03:13:45;;;;;;;;;10.00;10.00;;;;;;;;5121586;27;46986;-80
2022/04/09 03:16:11;;;;;;;;;10.25;9.75;;;;;;;;5106466;27;46057;-81
2022/04/09 03:18:36;;;;;;;;;12.00;11.67;;;;;;;;5103305;27;45421;-81
2022/04/09 03:21:01;;;;;;;;;11.25;9.50;;;;;;;;5103895;27;46495;-80
2022/04/09 03:23:26;;;;;;;;;10.00;10.00;;;;;;;;5105449;27;46657;-81
2022/04/09 03:25:52;;;;;;;;;11.50;10.75;;;;;;;;5101933;27;45345;-81
2022/04/09 03:28:17;;;;;;;;;9.00;9.00;;;;;;;;5099634;27;45405;-80
2022/04/09 03:30:44;;;;;;;;;11.25;10.75;;;;;;;;5101790;27;45334;-80
2022/04/09 03:33:09;;;;;;;;;12.00;10.00;;;;;;;;5104384;27;48340;-80
2022/04/09 03:35:34;;;;;;;;;9.00;9.00;;;;;;;;5102813;27;45651;-80
2022/04/09 03:38:00;;;;;;;;;12.00;11.00;;;;;;;;5105452;27;45336;-79
2022/04/09 03:40:25;;;;;;;;;10.00;9.00;;;;;;;;5099779;27;46933;-81
2022/04/09 03:42:50;;;;;;;;;10.50;10.50;;;;;;;;5106431;27;45427;-80
2022/04/09 03:45:15;;;;;;;;;11.00;10.67;;;;;;;;5105221;27;45290;-81
2022/04/09 03:47:40;;;;;;;;;11.75;10.75;;;;;;;;5103200;27;45361;-80
2022/04/09 03:50:06;;;;;;;;;10.00;8.67;;;;;;;;5103310;27;45307;-81
2022/04/09 03:52:31;;;;;;;;;11.67;11.00;;;;;;;;5101207;27;47091;-81
2022/04/09 03:54:56;;;;;;;;;11.00;10.00;;;;;;;;5104313;27;45421;-79
2022/04/09 03:57:21;;;;;;;;;13.00;12.00;;;;;;;;5098592;27;45392;-79
2022/04/09 03:59:48;;;;;;;;;12.00;12.00;;;;;;;;5099825;27;45311;-78
2022/04/09 04:02:14;;;;;;;;;14.50;13.00;;;;;;;;5097977;27;46982;-78
2022/04/09 04:04:39;;;;;;;;;14.50;14.50;;;;;;;;5099604;27;45249;-78
2022/04/09 04:07:04;;;;;;;;;17.25;15.00;;;;;;;;5099665;27;45244;-80
2022/04/09 04:09:30;;;;;;;;;15.25;14.25;;;;;;;;5099531;27;45292;-79
2022/04/09 04:11:55;;;;;;;;;16.50;13.50;;;;;;;;5098170;27;47047;-79
2022/04/09 04:14:20;;;;;;;;;15.50;15.50;;;;;;;;5099472;27;45147;-79
2022/04/09 04:16:45;;;;;;;;;17.00;17.00;;;;;;;;5121572;27;45293;-79
2022/04/09 04:19:11;;;;;;;;;15.25;12.75;;;;;;;;5122449;27;46370;-78
2022/04/09 04:21:38;;;;;;;;;15.25;15.25;;;;;;;;5124021;27;45325;-79
2022/04/09 04:24:03;;;;;;;;;18.75;17.75;;;;;;;;5124790;27;45293;-80
2022/04/09 04:26:28;;;;;;;;;17.75;17.75;;;;;;;;5124725;27;45564;-80
2022/04/09 04:28:53;;;;;;;;;17.00;17.00;;;;;;;;5123968;27;45275;-79
2022/04/09 04:31:19;;;;;;;;;18.75;17.50;;;;;;;;5121739;27;48740;-79
2022/04/09 04:33:44;;;;;;;;;13.00;13.00;;;;;;;;5122098;27;45335;-79
2022/04/09 04:36:09;;;;;;;;;17.75;17.75;;;;;;;;5123581;27;45287;-80
2022/04/09 04:38:34;;;;;;;;;17.50;13.00;;;;;;;;5123133;27;45523;-81
2022/04/09 04:41:01;;;;;;;;;15.25;15.25;;;;;;;;5121946;27;48235;-81
2022/04/09 04:43:26;;;;;;;;;11.25;11.25;;;;;;;;5123240;27;45303;-80
2022/04/09 04:45:51;;;;;;;;;14.25;13.00;;;;;;;;5123231;27;45263;-80
2022/04/09 04:48:17;;;;;;;;;13.25;12.25;;;;;;;;5123286;27;45406;-80
2022/04/09 04:50:42;;;;;;;;;13.50;12.50;;;;;;;;5121593;27;47252;-81
2022/04/09 04:53:07;;;;;;;;;13.50;13.50;;;;;;;;5123251;27;45282;-80
2022/04/09 04:55:35;;;;;;;;;15.50;14.50;;;;;;;;5123295;27;45320;-81
2022/04/09 04:58:00;;;;;;;;;12.00;12.00;;;;;;;;5121844;27;45936;-81
2022/04/09 05:00:25;;;;;;;;;17.75;16.50;;;;;;;;5122739;27;46275;-81
2022/04/09 05:02:51;;;;;;;;;11.75;11.00;;;;;;;;5122989;27;45267;-81
2022/04/09 05:05:16;;;;;;;;;13.50;11.75;;;;;;;;5121786;27;45356;-81
2022/04/09 05:07:49;;;;;;;;;12.50;11.75;;;;;;;;5121431;27;46344;-81
2022/04/09 05:10:15;;;;;;;;;16.00;13.50;;;;;;;;5123011;27;45339;-81
2022/04/09 05:12:41;;;;;;;;;13.50;11.75;;;;;;;;5122807;27;45281;-81
2022/04/09 05:15:07;;;;;;;;;11.75;11.00;;;;;;;;5116370;27;45241;-81
2022/04/09 05:17:32;;;;;;;;;13.00;13.00;;;;;;;;5102149;27;45448;-80
2022/04/09 05:19:57;;;;;;;;;20.00;14.00;;;;;;;;5102035;27;45330;-81
2022/04/09 05:22:25;;;;;;;;;11.25;10.75;;;;;;;;5100745;27;45268;-81
2022/04/09 05:24:51;;;;;;;;;17.50;14.75;;;;;;;;5100840;27;45389;-81
2022/04/09 05:27:16;;;;;;;;;14.50;12.25;;;;;;;;5100071;27;45780;-82
2022/04/09 05:29:41;;;;;;;;;11.25;11.00;;;;;;;;5100562;27;47274;-81
2022/04/09 05:32:07;;;;;;;;;15.25;15.00;;;;;;;;5101478;27;45383;-81
2022/04/09 05:34:32;;;;;;;;;10.75;10.75;;;;;;;;5101988;27;45285;-81
2022/04/09 05:36:57;;;;;;;;;17.50;17.00;;;;;;;;5100444;27;46740;-81
2022/04/09 05:39:22;;;;;;;;;45.00;36.00;;;;;;;;5101639;27;45411;-81
2022/04/09 05:41:48;;;;;;;;;66.00;53.25;;;;;;;;5101774;27;45377;-81
2022/04/09 05:44:13;;;;;;;;;39.50;35.00;;;;;;;;5101934;27;45339;-81
2022/04/09 05:46:38;;;;;;;;;17.00;16.00;;;;;;;;5101549;27;45527;-81
2022/04/09 05:49:04;;;;;;;;;16.50;15.75;;;;;;;;5101780;27;45376;-81
2022/04/09 05:51:30;;;;;;;;;18.25;18.00;;;;;;;;5100196;27;45806;-81
2022/04/09 05:53:59;;;;;;;;;17.50;17.50;;;;;;;;5100385;27;45389;-82
2022/04/09 05:56:24;;;;;;;;;17.50;16.25;;;;;;;;5101275;27;45468;-81
2022/04/09 05:58:50;;;;;;;;;21.75;17.25;;;;;;;;5101502;27;46103;-81
2022/04/09 06:01:15;;;;;;;;;18.75;17.75;;;;;;;;5098448;27;45484;-81
2022/04/09 06:03:40;;;;;;;;;15.00;14.75;;;;;;;;5097785;27;45266;-81
2022/04/09 06:06:05;;;;;;;;;19.00;16.75;;;;;;;;5091869;27;46235;-82
2022/04/09 06:08:33;;;;;;;;;19.25;19.00;;;;;;;;5082065;27;46202;-80
2022/04/09 06:10:59;;;;;;;;;18.75;17.75;;;;;;;;5081136;27;45389;-82
2022/04/09 06:13:24;;;;;;;;;19.50;18.25;;;;;;;;5081283;27;45337;-82
2022/04/09 06:15:49;;;;;;;;;17.00;15.50;;;;;;;;5100952;27;47354;-82
2022/04/09 06:18:15;;;;;;;;;19.50;18.00;;;;;;;;5120468;27;47035;-82
2022/04/09 06:20:40;;;;;;;;;22.50;19.50;;;;;;;;5120350;27;45376;-82
2022/04/09 06:23:06;;;;;;;;;18.50;17.00;;;;;;;;5121044;27;45439;-79
2022/04/09 06:25:31;;;;;;;;;15.50;14.75;;;;;;;;5092623;27;45448;-80
2022/04/09 06:27:57;;;;;;;;;19.50;19.25;;;;;;;;5090801;27;46035;-81
2022/04/09 06:30:22;;;;;;;;;23.25;19.75;;;;;;;;5080384;27;45202;-80
2022/04/09 06:32:48;;;;;;;;;17.75;17.75;;;;;;;;5079892;27;45264;-81
2022/04/09 06:35:13;;;;;;;;;26.50;26.50;;;;;;;;5081089;27;45321;-82
2022/04/09 06:37:38;;;;;;;;;24.25;21.75;;;;;;;;5090598;27;46594;-82
2022/04/09 06:40:05;;;;;;;;;27.75;25.50;;;;;;;;5102499;27;45266;-81
2022/04/09 06:42:30;;;;;;;;;23.50;21.50;;;;;;;;5100754;27;45307;-81
2022/04/09 06:44:58;;;;;;;;;22.75;22.25;;;;;;;;5100170;27;47296;-79
2022/04/09 06:47:23;;;;;;;;;19.75;18.50;;;;;;;;5101230;27;45314;-80
2022/04/09 06:49:48;;;;;;;;;20.50;19.25;;;;;;;;5095479;27;45334;-80
2022/04/09 06:52:13;;;;;;;;;23.00;22.25;;;;;;;;5080329;27;45325;-80
2022/04/09 06:54:39;;;;;;;;;19.00;18.00;;;;;;;;5083108;27;45569;-80
2022/04/09 06:57:04;;;;;;;;;18.00;15.50;;;;;;;;5099571;27;47409;-79
2022/04/09 06:59:29;;;;;;;;;20.25;20.25;;;;;;;;5100721;27;45368;-80
2022/04/09 07:01:54;;;;;;;;;18.75;18.75;;;;;;;;5101599;27;45412;-78
2022/04/09 07:04:19;;;;;;;;;19.25;16.50;;;;;;;;5100968;27;45480;-79
2022/04/09 07:06:46;;;;;;;;;18.25;18.25;;;;;;;;5099253;27;48267;-78
2022/04/09 07:09:12;;;;;;;;;21.50;19.75;;;;;;;;5092559;27;45676;-81
2022/04/09 07:11:37;;;;;;;;;20.75;19.00;;;;;;;;5082859;27;45290;-79
2022/04/09 07:14:03;;;;;;;;;20.25;17.00;;;;;;;;5081351;27;46074;-78
2022/04/09 07:16:28;;;;;;;;;20.00;19.25;;;;;;;;5110883;27;46208;-78
2022/04/09 07:18:53;;;;;;;;;22.00;22.00;;;;;;;;5121175;27;45345;-78
2022/04/09 07:21:20;;;;;;;;;23.25;22.25;;;;;;;;5123795;27;45423;-78
2022/04/09 07:23:45;;;;;;;;;20.50;20.25;;;;;;;;5123012;27;45516;-77
2022/04/09 07:26:10;;;;;;;;;23.00;23.00;;;;;;;;5120429;27;45553;-78
2022/04/09 07:28:36;;;;;;;;;24.50;23.25;;;;;;;;5125073;27;45315;-78
2022/04/09 07:31:01;;;;;;;;;24.75;23.25;;;;;;;;5126943;27;45311;-79
2022/04/09 07:33:26;;;;;;;;;22.75;22.75;;;;;;;;5123030;27;45372;-76
2022/04/09 07:35:53;;;;;;;;;22.00;22.00;;;;;;;;5104907;27;46873;-77
2022/04/09 07:38:18;;;;;;;;;21.00;19.00;;;;;;;;5078030;27;45543;-76
2022/04/09 07:40:43;;;;;;;;;24.50;21.75;;;;;;;;5078171;27;45449;-76
2022/04/09 07:43:09;;;;;;;;;23.75;23.75;;;;;;;;5077883;27;45535;-76
2022/04/09 07:45:34;;;;;;;;;26.75;25.75;;;;;;;;5077897;27;46025;-77
2022/04/09 07:47:59;;;;;;;;;24.50;21.25;;;;;;;;5077918;27;45509;-76
2022/04/09 07:50:25;;;;;;;;;29.50;25.00;;;;;;;;5080811;27;45497;-76
2022/04/09 07:52:51;;;;;;;;;28.25;23.75;;;;;;;;5080009;27;45982;-76
2022/04/09 07:55:16;;;;;;;;;28.25;27.50;;;;;;;;5081367;27;47893;-77
2022/04/09 07:57:46;;;;;;;;;32.00;25.75;;;;;;;;5081463;27;45389;-76
2022/04/09 08:00:12;;;;;;;;;29.25;27.25;;;;;;;;5079942;27;45418;-77
2022/04/09 08:02:37;;;;;;;;;24.25;24.25;;;;;;;;5079827;27;45543;-77
2022/04/09 08:05:02;;;;;;;;;24.50;24.50;;;;;;;;5081135;27;45239;-78
2022/04/09 08:07:28;;;;;;;;;21.00;20.75;;;;;;;;5081099;27;45334;-76
2022/04/09 08:09:53;;;;;;;;;22.50;22.50;;;;;;;;5081506;27;45677;-78
2022/04/09 08:12:18;;;;;;;;;24.50;22.00;;;;;;;;5082569;27;46016;-77
2022/04/09 08:14:44;;;;;;;;;23.50;23.50;;;;;;;;5084103;27;46068;-78
2022/04/09 08:17:09;;;;;;;;;26.00;24.25;;;;;;;;5081770;27;45315;-79
2022/04/09 08:19:35;;;;;;;;;25.50;25.50;;;;;;;;5081045;27;45309;-78
2022/04/09 08:22:04;;;;;;;;;24.75;23.50;;;;;;;;5081138;28;46346;-78
2022/04/09 08:24:29;;;;;;;;;31.25;29.00;;;;;;;;5084420;27;45399;-79
2022/04/09 08:26:55;;;;;;;;;24.75;24.75;;;;;;;;5081114;27;45312;-78
2022/04/09 08:29:20;;;;;;;;;23.50;23.25;;;;;;;;5100683;27;45313;-79
2022/04/09 08:31:47;;;;;;;;;23.75;23.75;;;;;;;;5092680;27;47257;-79
2022/04/09 08:34:17;;;;;;;;;24.00;23.25;;;;;;;;5083917;27;45622;-79
2022/04/09 08:36:42;;;;;;;;;28.50;28.50;;;;;;;;5078830;27;45695;-78
2022/04/09 08:39:07;;;;;;;;;28.00;25.50;;;;;;;;5080711;27;45364;-78
2022/04/09 08:41:35;;;;;;;;;28.75;28.75;;;;;;;;5080306;27;45329;-78
2022/04/09 08:44:00;;;;;;;;;30.75;29.75;;;;;;;;5080066;27;45563;-78
2022/04/09 08:46:26;;;;;;;;;30.50;29.50;;;;;;;;5081170;27;45335;-79
2022/04/09 08:48:51;;;;;;;;;27.50;26.25;;;;;;;;5080478;28;45338;-78
2022/04/09 08:51:16;;;;;;;;;25.00;23.75;;;;;;;;5101219;27;45356;-78
2022/04/09 08:53:43;;;;;;;;;23.50;22.25;;;;;;;;5100172;27;47052;-79
2022/04/09 08:56:18;;;;;;;;;23.75;23.75;;;;;;;;5100518;27;45404;-78
2022/04/09 08:58:43;;;;;;;;;26.25;25.00;;;;;;;;5087014;27;45464;-79
2022/04/09 09:01:09;;;;;;;;;27.50;27.25;;;;;;;;5079622;27;45492;-78
2022/04/09 09:03:35;;;;;;;;;31.50;28.50;;;;;;;;5079757;28;47216;-79
2022/04/09 09:06:01;;;;;;;;;38.75;34.00;;;;;;;;5082069;27;45325;-78
2022/04/09 09:08:36;;;;;;;;;22.75;22.75;;;;;;;;5081790;27;45260;-78
2022/04/09 09:11:01;;;;;;;;;26.00;26.00;;;;;;;;5080480;27;45503;-78
2022/04/09 09:13:26;;;;;;;;;21.75;21.75;;;;;;;;5078641;27;47105;-79
2022/04/09 09:15:53;;;;;;;;;24.50;22.75;;;;;;;;5086529;27;45357;-78
2022/04/09 09:18:19;;;;;;;;;21.33;21.33;;;;;;;;5080445;27;45588;-78
2022/04/09 09:20:55;;;;;;;;;27.00;26.50;;;;;;;;5080115;27;45419;-78
2022/04/09 09:23:24;;;;;;;;;23.00;22.00;;;;;;;;5079871;27;45327;-78
2022/04/09 09:25:51;;;;;;;;;24.00;21.75;;;;;;;;5080378;27;46009;-78
2022/04/09 09:28:34;;;;;;;;;24.25;22.00;;;;;;;;5078569;27;45448;-78
2022/04/09 09:31:00;;;;;;;;;20.50;20.50;;;;;;;;5078974;27;45679;-78
2022/04/09 09:33:26;;;;;;;;;25.75;23.75;;;;;;;;5079998;27;45318;-78
2022/04/09 09:35:51;;;;;;;;;20.00;18.75;;;;;;;;5078890;28;45266;-78
2022/04/09 09:38:29;;;;;;;;;18.75;17.75;;;;;;;;5079760;28;45310;-80
2022/04/09 09:40:55;;;;;;;;;17.50;17.25;;;;;;;;5081395;27;45483;-79
2022/04/09 09:43:21;;;;;;;;;16.33;16.00;;;;;;;;5078603;28;47346;-78
2022/04/09 09:45:47;;;;;;;;;14.67;14.00;;;;;;;;5080627;27;45412;-79
2022/04/09 09:48:23;;;;;;;;;17.00;15.33;;;;;;;;5081164;28;45521;-79
2022/04/09 09:50:48;;;;;;;;;16.00;16.00;;;;;;;;5079612;28;46319;-77
2022/04/09 09:53:14;;;;;;;;;19.25;19.25;;;;;;;;5081527;27;47589;-79
2022/04/09 09:55:45;;;;;;;;;20.33;19.00;;;;;;;;5101411;27;45389;-80
2022/04/09 09:58:15;;;;;;;;;20.25;19.00;;;;;;;;5100381;27;45424;-79
2022/04/09 10:00:40;;;;;;;;;21.50;21.00;;;;;;;;5101201;27;45236;-80
2022/04/09 10:03:06;;;;;;;;;22.00;20.50;;;;;;;;5099892;27;47610;-78
2022/04/09 10:05:59;;;;;;;;;23.00;21.50;;;;;;;;5092645;27;45261;-81
2022/04/09 10:08:24;;;;;;;;;24.00;23.50;;;;;;;;5083210;27;45477;-78
2022/04/09 10:10:53;;;;;;;;;24.00;19.33;;;;;;;;5080220;27;45153;-80
2022/04/09 10:13:19;;;;;;;;;22.25;21.25;;;;;;;;5079682;28;45266;-79
2022/04/09 10:15:46;;;;;;;;;20.67;20.33;;;;;;;;5099381;27;45347;-77
2022/04/09 10:18:12;;;;;;;;;21.75;21.00;;;;;;;;5121764;27;45450;-79
2022/04/09 10:20:38;;;;;;;;;23.00;23.00;;;;;;;;5121518;27;45434;-78
2022/04/09 10:23:05;;;;;;;;;25.75;23.75;;;;;;;;5121332;27;46811;-80
2022/04/09 10:25:32;;;;;;;;;25.00;24.50;;;;;;;;5121208;27;45296;-77
2022/04/09 10:28:01;;;;;;;;;23.25;22.25;;;;;;;;5121291;27;45231;-78
2022/04/09 10:30:28;;;;;;;;;26.25;25.00;;;;;;;;5121223;27;45402;-78
2022/04/09 10:32:57;;;;;;;;;26.00;23.50;;;;;;;;5121027;27;45383;-78
2022/04/09 10:35:23;;;;;;;;;22.50;20.00;;;;;;;;5121108;27;45437;-78
2022/04/09 10:38:24;;;;;;;;;20.33;18.33;;;;;;;;5119894;27;45248;-78
2022/04/09 10:40:49;;;;;;;;;19.00;19.00;;;;;;;;5081477;27;46001;-77
2022/04/09 10:43:20;;;;;;;;;19.00;18.33;;;;;;;;5111085;27;47352;-78
2022/04/09 10:46:09;;;;;;;;;14.67;14.67;;;;;;;;5106178;27;45318;-78
2022/04/09 10:48:35;;;;;;;;;18.00;17.67;;;;;;;;5091999;27;46008;-82
2022/04/09 10:51:04;;;;;;;;;16.00;16.00;;;;;;;;5083061;27;46591;-84
2022/04/09 10:53:30;;;;;;;;;14.00;14.00;;;;;;;;5085973;27;45681;-80
2022/04/09 10:56:21;;;;;;;;;19.67;17.00;;;;;;;;5081453;27;45432;-79
2022/04/09 10:58:59;;;;;;;;;13.33;13.33;;;;;;;;5078726;27;45461;-77
2022/04/09 11:01:43;;;;;;;;;15.33;13.67;;;;;;;;5087659;27;47250;-78
2022/04/09 11:04:35;;;;;;;;;16.00;16.00;;;;;;;;5080130;27;46515;-78
2022/04/09 11:07:03;;;;;;;;;14.00;14.00;;;;;;;;5078094;27;45599;-78
2022/04/09 11:09:42;;;;;;;;;11.67;11.67;;;;;;;;5079929;27;45496;-78
2022/04/09 11:12:08;;;;;;;;;11.00;11.00;;;;;;;;5078337;27;45556;-79
2022/04/09 11:14:49;;;;;;;;;12.33;12.00;;;;;;;;5092495;27;46554;-79
2022/04/09 11:17:35;;;;;;;;;12.33;11.67;;;;;;;;5095287;27;45862;-77
2022/04/09 11:20:03;;;;;;;;;11.00;11.00;;;;;;;;5079927;27;45272;-78
2022/04/09 11:22:32;;;;;;;;;9.67;9.67;;;;;;;;5089787;27;45537;-78
2022/04/09 11:24:58;;;;;;;;;12.00;12.00;;;;;;;;5090241;27;46419;-77
2022/04/09 11:27:25;;;;;;;;;14.00;14.00;;;;;;;;5098007;27;46312;-78
2022/04/09 11:29:50;;;;;;;;;14.00;13.67;;;;;;;;5088976;27;45340;-79
2022/04/09 11:32:19;;;;;;;;;11.67;10.67;;;;;;;;5086988;27;45401;-76
2022/04/09 11:34:55;;;;;;;;;12.33;11.33;;;;;;;;5077932;27;48359;-82
2022/04/09 11:37:29;;;;;;;;;13.67;12.67;;;;;;;;5090631;27;45283;-77
2022/04/09 11:39:55;;;;;;;;;11.33;11.33;;;;;;;;5085930;27;45293;-80
2022/04/09 11:42:29;;;;;;;;;14.67;14.67;;;;;;;;5083314;27;45895;-78
2022/04/09 11:44:57;;;;;;;;;19.33;18.00;;;;;;;;5092085;27;45926;-79
2022/04/09 11:47:23;;;;;;;;;18.00;18.00;;;;;;;;5090642;27;45437;-78
2022/04/09 11:49:56;;;;;;;;;12.33;12.33;;;;;;;;5081228;27;45386;-78
2022/04/09 11:52:26;;;;;;;;;17.33;17.33;;;;;;;;5084372;27;46716;-78
2022/04/09 11:54:51;;;;;;;;;17.33;17.33;;;;;;;;5084013;27;46167;-79
2022/04/09 11:57:17;;;;;;;;;15.33;15.33;;;;;;;;5080602;27;45390;-79
2022/04/09 11:59:43;;;;;;;;;15.00;15.00;;;;;;;;5085692;27;45962;-79
2022/04/09 12:05:47;;;;;;;;;;;;;;;;;;;;;
2022/04/09 12:14:40;;;;;;;;;17.33;16.33;;;;;;;;5052077;27;45520;-78
2022/04/09 12:17:40;;;;;;;;;;;;;;;;;;;;;
2022/04/09 12:20:49;;;;;;;;;;;;;;;;;;;;;
2022/04/09 12:26:55;;;;;;;;;22.00;21.00;;;;;;;;5014350;28;45357;-78
2022/04/09 12:57:14;;;;;;;;;15.00;15.00;;;;;;;;4999322;28;45432;-77
2022/04/09 12:59:40;;;;;;;;;20.00;19.67;;;;;;;;4998363;28;45441;-77
2022/04/09 13:02:06;;;;;;;;;13.33;12.33;;;;;;;;5051867;28;45646;-79
2022/04/09 13:04:31;;;;;;;;;12.00;12.00;;;;;;;;5074491;27;47012;-78
2022/04/09 13:06:56;;;;;;;;;13.00;13.00;;;;;;;;5100308;27;45399;-78
2022/04/09 13:09:22;;;;;;;;;14.67;14.67;;;;;;;;5101888;27;45486;-79
2022/04/09 13:11:47;;;;;;;;;19.00;18.00;;;;;;;;5101679;27;45509;-79
2022/04/09 13:14:12;;;;;;;;;14.33;14.00;;;;;;;;5097564;27;45380;-79
2022/04/09 13:16:38;;;;;;;;;17.33;16.00;;;;;;;;5083186;27;45917;-79
2022/04/09 13:19:04;;;;;;;;;12.00;12.00;;;;;;;;5101101;27;45346;-79
2022/04/09 13:21:30;;;;;;;;;12.33;12.33;;;;;;;;5100175;27;45337;-80
2022/04/09 13:23:55;;;;;;;;;13.00;13.00;;;;;;;;5080798;27;45389;-78
2022/04/09 13:26:20;;;;;;;;;13.00;13.00;;;;;;;;5089999;27;45473;-79
2022/04/09 13:28:45;;;;;;;;;16.67;15.00;;;;;;;;5085119;27;45520;-77
2022/04/09 13:31:10;;;;;;;;;17.00;17.00;;;;;;;;5092765;27;45447;-82
2022/04/09 13:33:36;;;;;;;;;18.00;17.33;;;;;;;;5097682;27;45361;-77
2022/04/09 13:36:01;;;;;;;;;20.00;18.00;;;;;;;;5093568;27;45477;-79
2022/04/09 13:38:26;;;;;;;;;16.67;16.67;;;;;;;;5093459;27;45477;-78
2022/04/09 13:40:51;;;;;;;;;15.33;15.33;;;;;;;;5111857;27;45595;-77
2022/04/09 13:43:16;;;;;;;;;15.50;15.00;;;;;;;;5093058;27;47108;-79
2022/04/09 13:45:42;;;;;;;;;14.67;14.67;;;;;;;;5110899;27;45466;-78
2022/04/09 13:48:08;;;;;;;;;16.67;16.00;;;;;;;;5110742;27;45322;-78
2022/04/09 13:50:34;;;;;;;;;10.67;10.67;;;;;;;;5092686;27;47445;-77
2022/04/09 13:52:59;;;;;;;;;17.00;14.00;;;;;;;;5102263;27;46251;-76
2022/04/09 13:55:24;;;;;;;;;17.00;15.00;;;;;;;;5099887;27;45431;-78
2022/04/09 13:57:50;;;;;;;;;13.67;13.67;;;;;;;;5100187;27;45720;-79
2022/04/09 14:00:15;;;;;;;;;16.67;15.67;;;;;;;;5102771;27;45463;-79
2022/04/09 14:02:41;;;;;;;;;13.67;12.33;;;;;;;;5099768;27;45507;-80
2022/04/09 14:05:07;;;;;;;;;13.33;13.33;;;;;;;;5105110;27;45629;-76
2022/04/09 14:07:33;;;;;;;;;9.33;8.67;;;;;;;;5100596;27;45456;-78
2022/04/09 14:09:58;;;;;;;;;16.00;16.00;;;;;;;;5099703;27;45379;-78
2022/04/09 14:12:23;;;;;;;;;13.00;13.00;;;;;;;;5102418;27;46373;-78
2022/04/09 14:14:49;;;;;;;;;16.67;16.67;;;;;;;;5099506;27;45328;-80
2022/04/09 14:17:14;;;;;;;;;19.67;17.33;;;;;;;;5119310;27;45386;-76
2022/04/09 14:19:39;;;;;;;;;19.33;19.00;;;;;;;;5097058;27;47204;-78
2022/04/09 14:22:05;;;;;;;;;15.00;14.33;;;;;;;;5093066;27;46649;-80
2022/04/09 14:24:31;;;;;;;;;15.00;15.00;;;;;;;;5104073;27;45375;-81
2022/04/09 14:26:57;;;;;;;;;13.33;11.67;;;;;;;;5107773;27;45300;-78
2022/04/09 14:29:23;;;;;;;;;12.67;11.67;;;;;;;;5113291;27;45519;-79
2022/04/09 14:31:49;;;;;;;;;12.00;11.67;;;;;;;;5108310;27;45314;-78
2022/04/09 14:34:14;;;;;;;;;14.33;14.00;;;;;;;;5101602;27;45862;-79
2022/04/09 14:36:39;;;;;;;;;13.33;13.33;;;;;;;;5109436;27;45572;-77
2022/04/09 14:39:06;;;;;;;;;13.67;13.67;;;;;;;;5121973;27;46667;-77
2022/04/09 14:41:31;;;;;;;;;13.00;13.00;;;;;;;;5111527;27;46363;-77
2022/04/09 14:43:59;;;;;;;;;10.00;10.00;;;;;;;;5099011;27;45432;-79
2022/04/09 14:46:24;;;;;;;;;8.00;8.00;;;;;;;;5122213;27;45430;-77
2022/04/09 14:48:49;;;;;;;;;16.00;16.00;;;;;;;;5091415;27;45855;-77
2022/04/09 14:51:15;;;;;;;;;9.00;9.00;;;;;;;;5114920;27;46356;-76
2022/04/09 14:53:46;;;;;;;;;9.00;9.00;;;;;;;;5094317;27;45341;-81
2022/04/09 14:56:12;;;;;;;;;7.33;7.33;;;;;;;;5099554;27;45432;-76
2022/04/09 14:58:38;;;;;;;;;7.33;6.33;;;;;;;;5108224;27;45342;-75
2022/04/09 15:01:04;;;;;;;;;12.33;12.33;;;;;;;;5103955;27;45556;-77